首页
METAR-TAF:

METAR-TAF

机场 :

克拉科夫, 波兰

纬度: 50-05N, 经度: 019-48E, 海拔: 237米

当前天气观测

该预报发布于22分钟前的16:00 UTC
风速2节,风向多变
温度 3°C
湿度 75%
气压 989 hPa
能见度10公里或以上
散云层高于5900英尺

METAR: EPKK 131600Z VRB02KT 9999 SCT059 03/M01 Q0989

时间: 17:22 (16:22 UTC)

预报

该预报发布于1小时和52分钟前的14:30 UTC
预报有效从13日的 15点(UTC)到 14日的 15点(UTC)
风速5节,风向东转东北
能见度10公里或以上
1500米以下无云,无积雨云
短暂存在
从 13日的 22点(UTC)到 14日的 06点(UTC)
能見度: 3500
轻雾
成为
从 14日的 09点(UTC)到 14日的 11点(UTC)
多云层高于1400英尺
短暂存在
从 14日的 09点(UTC)到 14日的 12点(UTC)
多云层高于800英尺

TAF: EPKK 131430Z 1315/1415 06005KT CAVOK TEMPO 1322/1406 3500 BR BECMG 1409/1411 BKN014 TEMPO 1409/1412 BKN008

超过4000个机场的气象观测和天气预报(METAR&TAF报告)。

可查询的气象台以黄色和红色小点在地图上表示。

将鼠标移到小点上方,可查看气象台名称。

然后点击查看天气观测和预报。

如需切换地图:点击带黑十字的绿色按钮放大地图;点击带横线的绿色按钮缩小地图;或者点击绿色箭头查看邻近地区的地图。


METAR-TAF: